Silver Cloud — C6MQ5 — position and weather

sailwx.info

Track history (hours):
 
Tides and Currents Weather Stations Pressure Air Temp Water Temp Dewpoint Dewpoint Depression Visibility Wind Speed Wind Dir Waves Ship Positions

Silver Cloud

Operator: V Ships Leisure SAM

Last reported at 2017-Mar-05 12:33 UTC. Time now 2017-Mar-23 12:15 UTC.
Position S 28°49' E 032°06'.
Warning: this ship's position is 17 days out of date.

Length 156 m; draft 5.7 m.

Type: Passenger vessel. MMSI: 309027000.

Date/timePositionNaut miles runAvg speedWind from/ knotsBaromVisibWave heightAir tempDewpointWater temp
2017-Mar-05 12:33S 28°49' E 032°06'2 0.3
2017-Mar-05 05:30S 28°48' E 032°05'47 1.6
2017-Mar-04 00:05S 29°28' E 031°38'917.2
2017-Mar-03 23:33S 29°35' E 031°30'1717.1
2017-Mar-03 22:33S 29°45' E 031°15'1313.0
2017-Mar-03 21:33S 29°53' E 031°02'0 0.4
2017-Mar-03 20:32S 29°52' E 031°02'0 0.0
2017-Mar-03 19:32S 29°52' E 031°02'0 0.0
2017-Mar-03 18:32S 29°52' E 031°02'0 0.0
2017-Mar-03 17:32S 29°52' E 031°02'0 0.0
2017-Mar-03 16:29S 29°52' E 031°02'0 0.0
2017-Mar-03 15:32S 29°52' E 031°02'0 0.0
2017-Mar-03 14:32S 29°52' E 031°02'0 0.0
2017-Mar-03 13:32S 29°52' E 031°02'0 0.0
2017-Mar-03 12:29S 29°52' E 031°02'0 0.0
2017-Mar-03 11:32S 29°52' E 031°02'0 0.0
2017-Mar-03 10:29S 29°52' E 031°02'0 0.0
2017-Mar-03 09:32S 29°52' E 031°02'0 0.0
2017-Mar-03 08:29S 29°52' E 031°02'0 0.0
2017-Mar-03 07:32S 29°52' E 031°02'2 1.7
2017-Mar-03 06:33S 29°52' E 031°04'6 5.8
2017-Mar-03 05:34S 29°57' E 031°07'1616.1
2017-Mar-03 04:34S 30°11' E 030°59'  
2017-Feb-27 17:32S 33°59' E 018°13'1312.0
2017-Feb-27 16:29S 33°51' E 018°25'3 3.7
2017-Feb-27 15:33S 33°55' E 018°26'0 0.0
2017-Feb-27 14:33S 33°55' E 018°26'0 0.0
2017-Feb-27 13:33S 33°55' E 018°26'0 0.0
2017-Feb-27 12:30S 33°55' E 018°26'0 0.0
2017-Feb-27 11:33S 33°55' E 018°26'0 0.0
2017-Feb-27 10:33S 33°55' E 018°26'0 0.0
2017-Feb-27 09:33S 33°55' E 018°26'0 0.0
2017-Feb-27 08:30S 33°55' E 018°26'0 0.0
2017-Feb-27 07:33S 33°55' E 018°26'0 0.0
2017-Feb-27 06:30S 33°55' E 018°26'0 0.0
2017-Feb-27 05:33S 33°55' E 018°26'0 0.2
2017-Feb-27 04:33S 33°55' E 018°26'5 5.4
2017-Feb-27 03:33S 33°55' E 018°19'1413.2
2017-Feb-27 02:31S 34°08' E 018°13'  
2017-Feb-24 18:19S 30°11' E 031°01'1316.7
2017-Feb-24 17:33S 29°59' E 031°07'8 8.1
2017-Feb-24 16:33S 29°52' E 031°02'0 0.1
2017-Feb-24 15:31S 29°52' E 031°02'0 0.0
2017-Feb-24 14:31S 29°52' E 031°02'0 0.0
2017-Feb-24 13:31S 29°52' E 031°02'0 0.0
2017-Feb-24 12:28S 29°52' E 031°02'0 0.0
2017-Feb-24 11:31S 29°52' E 031°02'0 0.0
2017-Feb-24 10:31S 29°52' E 031°02'0 0.0
2017-Feb-24 09:31S 29°52' E 031°02'0 0.0
2017-Feb-24 08:31S 29°52' E 031°02'0 0.0
2017-Feb-24 07:28S 29°52' E 031°02'0 0.0
2017-Feb-24 06:31S 29°52' E 031°02'0 0.1
2017-Feb-24 05:33S 29°52' E 031°02'8 8.4
2017-Feb-24 04:33S 29°48' E 031°10'1413.9
2017-Feb-24 03:33S 29°39' E 031°22'1514.8
2017-Feb-24 02:33S 29°28' E 031°34'1515.1
2017-Feb-24 01:34S 29°18' E 031°46'1514.6
2017-Feb-24 00:33S 29°07' E 031°58'  
Track history (hours):
 
Tides and Currents Weather Stations Pressure Air Temp Water Temp Dewpoint Dewpoint Depression Visibility Wind Speed Wind Dir Waves Ship Positions

Silver Cloud

Operator: V Ships Leisure SAM

Last reported at 2017-Mar-05 12:33 UTC. Time now 2017-Mar-23 12:15 UTC.
Position S 28°49' E 032°06'.
Warning: this ship's position is 17 days out of date.

Length 156 m; draft 5.7 m.

Type: Passenger vessel. MMSI: 309027000.

Date/timePositionNaut miles runAvg speedWind from/ knotsBaromVisibWave heightAir tempDewpointWater temp
2017-Mar-05 12:33S 28°49' E 032°06'2 0.3
2017-Mar-05 05:30S 28°48' E 032°05'47 1.6
2017-Mar-04 00:05S 29°28' E 031°38'917.2
2017-Mar-03 23:33S 29°35' E 031°30'1717.1
2017-Mar-03 22:33S 29°45' E 031°15'1313.0
2017-Mar-03 21:33S 29°53' E 031°02'0 0.4
2017-Mar-03 20:32S 29°52' E 031°02'0 0.0
2017-Mar-03 19:32S 29°52' E 031°02'0 0.0
2017-Mar-03 18:32S 29°52' E 031°02'0 0.0
2017-Mar-03 17:32S 29°52' E 031°02'0 0.0
2017-Mar-03 16:29S 29°52' E 031°02'0 0.0
2017-Mar-03 15:32S 29°52' E 031°02'0 0.0
2017-Mar-03 14:32S 29°52' E 031°02'0 0.0
2017-Mar-03 13:32S 29°52' E 031°02'0 0.0
2017-Mar-03 12:29S 29°52' E 031°02'0 0.0
2017-Mar-03 11:32S 29°52' E 031°02'0 0.0
2017-Mar-03 10:29S 29°52' E 031°02'0 0.0
2017-Mar-03 09:32S 29°52' E 031°02'0 0.0
2017-Mar-03 08:29S 29°52' E 031°02'0 0.0
2017-Mar-03 07:32S 29°52' E 031°02'2 1.7
2017-Mar-03 06:33S 29°52' E 031°04'6 5.8
2017-Mar-03 05:34S 29°57' E 031°07'1616.1
2017-Mar-03 04:34S 30°11' E 030°59'  
2017-Feb-27 17:32S 33°59' E 018°13'1312.0
2017-Feb-27 16:29S 33°51' E 018°25'3 3.7
2017-Feb-27 15:33S 33°55' E 018°26'0 0.0
2017-Feb-27 14:33S 33°55' E 018°26'0 0.0
2017-Feb-27 13:33S 33°55' E 018°26'0 0.0
2017-Feb-27 12:30S 33°55' E 018°26'0 0.0
2017-Feb-27 11:33S 33°55' E 018°26'0 0.0
2017-Feb-27 10:33S 33°55' E 018°26'0 0.0
2017-Feb-27 09:33S 33°55' E 018°26'0 0.0
2017-Feb-27 08:30S 33°55' E 018°26'0 0.0
2017-Feb-27 07:33S 33°55' E 018°26'0 0.0
2017-Feb-27 06:30S 33°55' E 018°26'0 0.0
2017-Feb-27 05:33S 33°55' E 018°26'0 0.2
2017-Feb-27 04:33S 33°55' E 018°26'5 5.4
2017-Feb-27 03:33S 33°55' E 018°19'1413.2
2017-Feb-27 02:31S 34°08' E 018°13'  
2017-Feb-24 18:19S 30°11' E 031°01'1316.7
2017-Feb-24 17:33S 29°59' E 031°07'8 8.1
2017-Feb-24 16:33S 29°52' E 031°02'0 0.1
2017-Feb-24 15:31S 29°52' E 031°02'0 0.0
2017-Feb-24 14:31S 29°52' E 031°02'0 0.0
2017-Feb-24 13:31S 29°52' E 031°02'0 0.0
2017-Feb-24 12:28S 29°52' E 031°02'0 0.0
2017-Feb-24 11:31S 29°52' E 031°02'0 0.0
2017-Feb-24 10:31S 29°52' E 031°02'0 0.0
2017-Feb-24 09:31S 29°52' E 031°02'0 0.0
2017-Feb-24 08:31S 29°52' E 031°02'0 0.0
2017-Feb-24 07:28S 29°52' E 031°02'0 0.0
2017-Feb-24 06:31S 29°52' E 031°02'0 0.1
2017-Feb-24 05:33S 29°52' E 031°02'8 8.4
2017-Feb-24 04:33S 29°48' E 031°10'1413.9
2017-Feb-24 03:33S 29°39' E 031°22'1514.8
2017-Feb-24 02:33S 29°28' E 031°34'1515.1
2017-Feb-24 01:34S 29°18' E 031°46'1514.6
2017-Feb-24 00:33S 29°07' E 031°58'  

Dump ship's entire track history